createdAt,value
2018-11-29T00:00:42.390Z,99.90
2018-11-29T00:05:45.536Z,99.90
2018-11-29T00:10:48.691Z,99.90
2018-11-29T00:15:51.835Z,99.90
2018-11-29T00:20:54.947Z,99.90
2018-11-29T00:25:58.099Z,99.90
2018-11-29T00:31:01.203Z,99.90
2018-11-29T00:36:04.351Z,99.90
2018-11-29T00:41:07.526Z,99.90
2018-11-29T00:46:10.635Z,99.90
2018-11-29T00:51:13.743Z,99.90
2018-11-29T00:56:16.844Z,99.90
2018-11-29T01:01:19.948Z,99.90
2018-11-29T01:06:23.039Z,99.90
2018-11-29T01:11:26.149Z,99.90
2018-11-29T01:16:29.261Z,99.90
2018-11-29T01:21:32.379Z,99.90
2018-11-29T01:26:35.487Z,99.90
2018-11-29T01:31:38.700Z,99.90
2018-11-29T01:36:41.808Z,99.90
2018-11-29T01:41:45.020Z,99.90
2018-11-29T01:46:48.199Z,99.90
2018-11-29T01:51:51.336Z,99.90
2018-11-29T01:56:54.436Z,99.90
2018-11-29T02:01:57.660Z,99.90
2018-11-29T02:07:00.792Z,99.90
2018-11-29T02:12:03.908Z,99.90
2018-11-29T02:17:07.106Z,99.90
2018-11-29T02:22:10.275Z,99.90
2018-11-29T02:27:13.397Z,99.90
2018-11-29T02:32:15.923Z,99.90
2018-11-29T02:37:18.375Z,99.90
2018-11-29T02:42:21.496Z,99.90
2018-11-29T02:47:24.712Z,99.90
2018-11-29T02:52:27.872Z,99.90
2018-11-29T02:57:31.021Z,99.90
2018-11-29T03:02:34.145Z,99.90
2018-11-29T03:07:37.647Z,99.90
2018-11-29T03:12:41.042Z,99.90
2018-11-29T03:17:44.527Z,99.90
2018-11-29T03:22:47.679Z,99.90
2018-11-29T03:27:50.788Z,99.90
2018-11-29T03:32:53.998Z,99.90
2018-11-29T03:37:57.205Z,99.90
2018-11-29T03:43:00.327Z,99.90
2018-11-29T03:48:03.435Z,99.90
2018-11-29T03:53:06.631Z,99.90
2018-11-29T03:58:09.755Z,99.90
2018-11-29T04:03:12.963Z,99.90
2018-11-29T04:08:15.401Z,99.90
2018-11-29T04:13:17.906Z,99.90
2018-11-29T04:18:20.359Z,99.90
2018-11-29T04:23:22.819Z,99.90
2018-11-29T04:28:25.287Z,99.90
2018-11-29T04:33:27.751Z,99.90
2018-11-29T04:38:30.210Z,99.90
2018-11-29T04:43:32.699Z,99.90
2018-11-29T04:48:35.171Z,99.90
2018-11-29T04:53:37.636Z,99.90
2018-11-29T04:58:40.087Z,99.90
2018-11-29T05:03:42.541Z,99.90
2018-11-29T05:08:45.006Z,99.90
2018-11-29T05:13:47.469Z,99.90
2018-11-29T05:18:49.914Z,99.90
2018-11-29T05:23:52.352Z,99.90
2018-11-29T05:28:54.783Z,99.90
2018-11-29T05:33:57.223Z,99.90
2018-11-29T05:38:59.658Z,99.90
2018-11-29T05:44:02.103Z,99.90
2018-11-29T05:49:04.572Z,99.90
2018-11-29T05:54:07.070Z,99.90
2018-11-29T05:59:09.562Z,99.90
2018-11-29T06:04:12.022Z,99.90
2018-11-29T06:09:14.463Z,99.90
2018-11-29T06:14:23.476Z,99.90
2018-11-29T06:19:25.934Z,99.90
2018-11-29T06:24:28.503Z,99.90
2018-11-29T06:29:30.959Z,99.90
2018-11-29T06:34:33.415Z,99.90
2018-11-29T06:39:35.881Z,99.90
2018-11-29T06:44:38.374Z,99.90
2018-11-29T06:49:40.831Z,99.90
2018-11-29T06:54:43.294Z,99.90
2018-11-29T06:59:45.758Z,99.90
2018-11-29T07:04:48.220Z,99.90
2018-11-29T07:09:50.719Z,99.90
2018-11-29T07:14:53.215Z,99.90
2018-11-29T07:19:55.691Z,99.90
2018-11-29T07:24:58.158Z,99.90
2018-11-29T07:30:00.619Z,99.90
2018-11-29T07:35:03.078Z,99.90
2018-11-29T07:40:06.835Z,99.90
2018-11-29T07:45:10.044Z,99.90
2018-11-29T07:50:16.056Z,99.90
2018-11-29T07:55:19.011Z,99.90
2018-11-29T08:00:21.527Z,99.90
2018-11-29T08:05:23.985Z,99.90
2018-11-29T08:10:26.443Z,99.90
2018-11-29T08:15:28.926Z,99.90
2018-11-29T08:20:31.369Z,99.90
2018-11-29T08:25:33.817Z,99.90
2018-11-29T08:30:36.273Z,99.90
2018-11-29T08:35:38.710Z,99.90
2018-11-29T08:40:41.219Z,99.90
2018-11-29T08:45:43.660Z,99.90
2018-11-29T08:50:46.126Z,99.90
2018-11-29T08:55:48.599Z,99.90
2018-11-29T09:00:51.081Z,99.90
2018-11-29T09:05:53.538Z,99.90
2018-11-29T09:10:55.990Z,99.90
2018-11-29T09:15:58.474Z,99.90
2018-11-29T09:21:00.943Z,99.90
2018-11-29T09:26:03.407Z,99.90
2018-11-29T09:31:05.872Z,99.90
2018-11-29T09:36:08.318Z,99.90
2018-11-29T09:41:10.782Z,99.90
2018-11-29T09:46:13.255Z,99.90
2018-11-29T09:51:15.712Z,99.90
2018-11-29T09:56:18.171Z,99.90
2018-11-29T10:01:20.626Z,99.90
2018-11-29T10:06:23.100Z,99.90
2018-11-29T10:11:25.579Z,99.90
2018-11-29T10:16:28.050Z,99.90
2018-11-29T10:21:30.578Z,99.90
2018-11-29T10:26:33.043Z,99.90
2018-11-29T10:31:35.507Z,99.90
2018-11-29T10:36:37.998Z,99.90
2018-11-29T10:41:40.470Z,99.90
2018-11-29T10:46:42.943Z,99.90
2018-11-29T10:51:45.407Z,99.90
2018-11-29T10:56:47.927Z,99.90
2018-11-29T11:01:55.992Z,99.90
2018-11-29T11:06:58.446Z,99.90
2018-11-29T11:12:00.911Z,99.90
2018-11-29T11:17:03.375Z,99.90
2018-11-29T11:22:05.836Z,99.90
2018-11-29T11:27:08.295Z,99.90
2018-11-29T11:32:10.755Z,99.90
2018-11-29T11:37:13.219Z,99.90
2018-11-29T11:42:15.679Z,99.90
2018-11-29T11:47:18.131Z,99.90
2018-11-29T11:52:20.655Z,99.90
2018-11-29T11:57:23.115Z,99.90
2018-11-29T12:02:27.510Z,99.90
2018-11-29T12:07:28.042Z,99.90
2018-11-29T12:12:30.568Z,99.90
2018-11-29T12:17:33.039Z,99.90
2018-11-29T12:22:35.508Z,99.90
2018-11-29T12:27:37.974Z,99.90
2018-11-29T12:32:40.431Z,99.90
2018-11-29T12:37:42.882Z,99.90
2018-11-29T12:42:45.335Z,99.90
2018-11-29T12:47:47.803Z,99.90
2018-11-29T12:52:50.262Z,99.90
2018-11-29T12:58:04.575Z,99.90
2018-11-29T13:02:57.862Z,99.90
2018-11-29T13:08:00.315Z,99.90
2018-11-29T13:13:02.955Z,99.90
2018-11-29T13:18:06.258Z,99.90
2018-11-29T13:23:08.712Z,99.90
2018-11-29T13:28:11.171Z,99.90
2018-11-29T13:33:13.623Z,99.90
2018-11-29T13:38:16.431Z,99.90
2018-11-29T13:43:18.895Z,99.90
2018-11-29T13:48:21.368Z,99.90
2018-11-29T13:53:23.892Z,99.90
2018-11-29T13:58:26.351Z,99.90
2018-11-29T14:03:28.812Z,99.90
2018-11-29T14:08:31.262Z,99.90
2018-11-29T14:13:33.823Z,99.90
2018-11-29T14:18:36.277Z,99.90
2018-11-29T14:23:38.741Z,99.90
2018-11-29T14:28:41.203Z,99.90
2018-11-29T14:33:43.662Z,99.90
2018-11-29T14:38:46.126Z,99.90
2018-11-29T14:43:48.578Z,99.90
2018-11-29T14:48:51.036Z,99.90
2018-11-29T14:53:53.491Z,99.90
2018-11-29T14:58:56.000Z,99.90
2018-11-29T15:03:59.231Z,99.90
2018-11-29T15:09:02.802Z,99.90
2018-11-29T15:14:06.031Z,99.90
2018-11-29T15:19:09.319Z,99.90
2018-11-29T15:24:12.496Z,99.90
2018-11-29T15:29:15.664Z,99.90
2018-11-29T15:34:18.891Z,99.90
2018-11-29T15:39:22.246Z,99.90
2018-11-29T15:44:25.426Z,99.90
2018-11-29T15:49:28.632Z,99.90
2018-11-29T15:54:31.888Z,99.90
2018-11-29T15:59:35.067Z,99.90
2018-11-29T16:04:38.269Z,99.90
2018-11-29T16:09:41.519Z,99.90
2018-11-29T16:14:44.063Z,99.90
2018-11-29T16:19:46.519Z,99.90
2018-11-29T16:24:48.978Z,99.90
2018-11-29T16:29:51.543Z,99.90
2018-11-29T16:34:54.002Z,99.90
2018-11-29T16:39:56.464Z,99.90
2018-11-29T16:44:59.011Z,99.90
2018-11-29T16:50:01.468Z,99.90
2018-11-29T16:55:04.210Z,99.90
2018-11-29T17:00:09.266Z,99.90
2018-11-29T17:05:12.174Z,99.80
2018-11-29T17:10:15.179Z,99.60
2018-11-29T17:15:17.983Z,99.30
2018-11-29T17:20:20.575Z,99.80
2018-11-29T17:25:23.033Z,99.40
2018-11-29T17:41:04.498Z,99.90
2018-11-29T17:46:07.619Z,99.20
2018-11-29T17:51:10.062Z,99.50
2018-11-29T17:56:12.515Z,99.10
2018-11-29T18:04:43.221Z,99.80
2018-11-29T18:09:45.764Z,99.60
2018-11-29T18:14:48.216Z,99.50
2018-11-29T18:19:50.699Z,99.40
2018-11-29T18:24:53.142Z,99.40
2018-11-29T18:29:55.599Z,99.50
2018-11-29T18:34:58.059Z,99.50
2018-11-29T18:40:00.524Z,99.40
2018-11-29T18:45:02.975Z,99.20
2018-11-29T18:50:06.658Z,99.10
2018-11-29T18:55:09.299Z,99.10
2018-11-29T19:00:13.390Z,99.00
2018-11-29T19:05:15.849Z,99.00
2018-11-29T19:10:19.469Z,99.00
2018-11-29T19:15:22.601Z,98.50
2018-11-29T19:20:25.061Z,98.80
2018-11-29T19:25:27.566Z,98.90
2018-11-29T19:34:20.992Z,98.90
2018-11-29T19:39:23.511Z,98.80
2018-11-29T19:44:25.951Z,98.90
2018-11-29T19:49:28.467Z,99.00
2018-11-29T19:54:30.931Z,99.00
2018-11-29T19:59:33.379Z,99.10
2018-11-29T20:04:35.951Z,99.10
2018-11-29T20:09:38.418Z,99.20
2018-11-29T20:14:40.932Z,99.10
2018-11-29T20:19:43.407Z,99.20
2018-11-29T20:24:45.919Z,99.20
2018-11-29T20:29:48.429Z,99.30
2018-11-29T20:34:50.899Z,99.30
2018-11-29T20:39:53.411Z,99.40
2018-11-29T20:44:56.071Z,99.40
2018-11-29T20:49:58.582Z,99.40
2018-11-29T20:55:01.071Z,99.40
2018-11-29T21:00:03.815Z,99.40
2018-11-29T21:05:07.315Z,99.40
2018-11-29T21:10:11.747Z,99.40
2018-11-29T21:15:14.218Z,99.40
2018-11-29T21:20:17.155Z,99.40
2018-11-29T21:25:20.350Z,99.40
2018-11-29T21:30:22.841Z,99.40
2018-11-29T21:35:25.294Z,99.40
2018-11-29T21:40:28.342Z,99.50
2018-11-29T21:45:30.988Z,99.50
2018-11-29T21:50:33.519Z,99.50
2018-11-29T21:55:36.006Z,99.50
2018-11-29T22:00:38.467Z,99.50
2018-11-29T22:05:40.998Z,99.50
2018-11-29T22:10:43.443Z,99.50
2018-11-29T22:15:45.891Z,99.60
2018-11-29T22:20:49.103Z,99.50
2018-11-29T22:25:51.728Z,99.60
2018-11-29T22:30:54.408Z,99.50
2018-11-29T22:35:56.859Z,99.50
2018-11-29T22:40:59.311Z,99.50
2018-11-29T22:46:01.771Z,99.60
2018-11-29T22:51:04.243Z,99.60
2018-11-29T22:56:06.690Z,99.60
2018-11-29T23:01:14.624Z,99.60
2018-11-29T23:06:17.079Z,99.60
2018-11-29T23:11:19.554Z,99.60
2018-11-29T23:16:22.031Z,99.60
2018-11-29T23:21:24.498Z,99.60
2018-11-29T23:26:27.309Z,99.60
2018-11-29T23:31:29.403Z,99.70
2018-11-29T23:36:31.863Z,99.70
2018-11-29T23:41:34.423Z,99.70
2018-11-29T23:46:36.893Z,99.70
2018-11-29T23:51:39.343Z,99.70
2018-11-29T23:56:41.875Z,99.70
